sensor_id;sensor_type;location;lat;lon;timestamp;P1;durP1;ratioP1;P2;durP2;ratioP2
20880;SDS011;10600;53.096;8.802;2022-12-05T00:00:40;65.88;;;34.35;;
20880;SDS011;10600;53.096;8.802;2022-12-05T00:01:42;69.22;;;34.10;;
20880;SDS011;10600;53.096;8.802;2022-12-05T00:02:43;70.78;;;32.33;;
20880;SDS011;10600;53.096;8.802;2022-12-05T00:03:44;69.50;;;33.88;;
20880;SDS011;10600;53.096;8.802;2022-12-05T00:04:46;72.80;;;32.75;;
20880;SDS011;10600;53.096;8.802;2022-12-05T00:05:46;71.03;;;33.10;;
20880;SDS011;10600;53.096;8.802;2022-12-05T00:06:47;65.65;;;33.38;;
20880;SDS011;10600;53.096;8.802;2022-12-05T00:07:48;68.28;;;32.05;;
20880;SDS011;10600;53.096;8.802;2022-12-05T00:08:49;70.65;;;34.38;;
20880;SDS011;10600;53.096;8.802;2022-12-05T00:09:50;68.63;;;35.10;;
20880;SDS011;10600;53.096;8.802;2022-12-05T00:10:51;72.80;;;35.58;;
20880;SDS011;10600;53.096;8.802;2022-12-05T00:11:52;66.03;;;33.50;;
20880;SDS011;10600;53.096;8.802;2022-12-05T00:12:52;68.95;;;32.72;;
20880;SDS011;10600;53.096;8.802;2022-12-05T00:13:53;66.63;;;32.15;;
20880;SDS011;10600;53.096;8.802;2022-12-05T00:14:55;69.15;;;32.50;;
20880;SDS011;10600;53.096;8.802;2022-12-05T00:15:56;72.78;;;33.35;;
20880;SDS011;10600;53.096;8.802;2022-12-05T00:16:56;71.78;;;34.53;;
20880;SDS011;10600;53.096;8.802;2022-12-05T00:17:57;65.25;;;33.78;;
20880;SDS011;10600;53.096;8.802;2022-12-05T00:18:58;70.10;;;33.75;;
20880;SDS011;10600;53.096;8.802;2022-12-05T00:20:00;69.30;;;33.67;;
20880;SDS011;10600;53.096;8.802;2022-12-05T00:21:00;72.97;;;33.22;;
20880;SDS011;10600;53.096;8.802;2022-12-05T00:22:01;69.35;;;32.20;;
20880;SDS011;10600;53.096;8.802;2022-12-05T00:23:02;75.63;;;33.22;;
20880;SDS011;10600;53.096;8.802;2022-12-05T00:24:03;66.53;;;31.35;;
20880;SDS011;10600;53.096;8.802;2022-12-05T00:25:05;69.25;;;34.10;;
20880;SDS011;10600;53.096;8.802;2022-12-05T00:26:06;69.78;;;33.10;;
20880;SDS011;10600;53.096;8.802;2022-12-05T00:27:08;66.50;;;32.60;;
20880;SDS011;10600;53.096;8.802;2022-12-05T00:28:08;63.85;;;31.98;;
20880;SDS011;10600;53.096;8.802;2022-12-05T00:29:09;69.53;;;33.55;;
20880;SDS011;10600;53.096;8.802;2022-12-05T00:30:10;63.90;;;32.33;;
20880;SDS011;10600;53.096;8.802;2022-12-05T00:31:13;69.53;;;32.70;;
20880;SDS011;10600;53.096;8.802;2022-12-05T00:32:15;68.70;;;34.78;;
20880;SDS011;10600;53.096;8.802;2022-12-05T00:33:16;63.30;;;31.42;;
20880;SDS011;10600;53.096;8.802;2022-12-05T00:34:17;68.97;;;32.38;;
20880;SDS011;10600;53.096;8.802;2022-12-05T00:35:17;75.63;;;33.58;;
20880;SDS011;10600;53.096;8.802;2022-12-05T00:36:19;63.40;;;32.85;;
20880;SDS011;10600;53.096;8.802;2022-12-05T00:37:22;67.95;;;33.25;;
20880;SDS011;10600;53.096;8.802;2022-12-05T00:38:23;69.57;;;33.53;;
20880;SDS011;10600;53.096;8.802;2022-12-05T00:39:23;65.20;;;31.52;;
20880;SDS011;10600;53.096;8.802;2022-12-05T00:40:24;67.18;;;31.88;;
20880;SDS011;10600;53.096;8.802;2022-12-05T00:41:25;67.03;;;31.10;;
20880;SDS011;10600;53.096;8.802;2022-12-05T00:42:27;69.00;;;32.78;;
20880;SDS011;10600;53.096;8.802;2022-12-05T00:43:28;65.80;;;33.25;;
20880;SDS011;10600;53.096;8.802;2022-12-05T00:44:31;68.68;;;33.00;;
20880;SDS011;10600;53.096;8.802;2022-12-05T00:45:32;71.30;;;35.17;;
20880;SDS011;10600;53.096;8.802;2022-12-05T00:46:33;73.70;;;35.10;;
20880;SDS011;10600;53.096;8.802;2022-12-05T00:47:35;67.22;;;32.17;;
20880;SDS011;10600;53.096;8.802;2022-12-05T00:48:36;70.93;;;34.45;;
20880;SDS011;10600;53.096;8.802;2022-12-05T00:49:37;70.78;;;34.20;;
20880;SDS011;10600;53.096;8.802;2022-12-05T00:50:38;69.68;;;32.17;;
20880;SDS011;10600;53.096;8.802;2022-12-05T00:51:39;68.00;;;32.03;;
20880;SDS011;10600;53.096;8.802;2022-12-05T00:52:41;74.15;;;33.83;;
20880;SDS011;10600;53.096;8.802;2022-12-05T00:53:42;65.22;;;31.05;;
20880;SDS011;10600;53.096;8.802;2022-12-05T00:54:44;69.15;;;33.10;;
20880;SDS011;10600;53.096;8.802;2022-12-05T00:55:44;69.13;;;33.25;;
20880;SDS011;10600;53.096;8.802;2022-12-05T00:56:45;68.78;;;32.78;;
20880;SDS011;10600;53.096;8.802;2022-12-05T00:57:45;68.45;;;34.08;;
20880;SDS011;10600;53.096;8.802;2022-12-05T00:58:47;64.32;;;31.85;;
20880;SDS011;10600;53.096;8.802;2022-12-05T00:59:49;70.15;;;33.13;;
20880;SDS011;10600;53.096;8.802;2022-12-05T01:00:49;63.67;;;31.20;;
20880;SDS011;10600;53.096;8.802;2022-12-05T01:01:50;67.55;;;32.53;;
20880;SDS011;10600;53.096;8.802;2022-12-05T01:02:51;71.00;;;32.70;;
20880;SDS011;10600;53.096;8.802;2022-12-05T01:03:53;64.32;;;31.50;;
20880;SDS011;10600;53.096;8.802;2022-12-05T01:04:55;69.22;;;31.92;;
20880;SDS011;10600;53.096;8.802;2022-12-05T01:05:57;65.63;;;30.95;;
20880;SDS011;10600;53.096;8.802;2022-12-05T01:06:58;68.55;;;32.90;;
20880;SDS011;10600;53.096;8.802;2022-12-05T01:07:59;66.45;;;31.60;;
20880;SDS011;10600;53.096;8.802;2022-12-05T01:09:00;67.00;;;32.53;;
20880;SDS011;10600;53.096;8.802;2022-12-05T01:10:00;66.25;;;31.63;;
20880;SDS011;10600;53.096;8.802;2022-12-05T01:11:01;66.40;;;32.47;;
20880;SDS011;10600;53.096;8.802;2022-12-05T01:12:04;64.35;;;31.30;;
20880;SDS011;10600;53.096;8.802;2022-12-05T01:13:05;59.22;;;30.35;;
20880;SDS011;10600;53.096;8.802;2022-12-05T01:14:05;65.00;;;32.40;;
20880;SDS011;10600;53.096;8.802;2022-12-05T01:15:06;66.70;;;32.67;;
20880;SDS011;10600;53.096;8.802;2022-12-05T01:16:26;64.57;;;31.42;;
20880;SDS011;10600;53.096;8.802;2022-12-05T01:17:29;64.13;;;31.80;;
20880;SDS011;10600;53.096;8.802;2022-12-05T01:18:29;61.58;;;30.63;;
20880;SDS011;10600;53.096;8.802;2022-12-05T01:19:31;52.92;;;26.83;;
20880;SDS011;10600;53.096;8.802;2022-12-05T01:20:32;67.28;;;31.05;;
20880;SDS011;10600;53.096;8.802;2022-12-05T01:21:32;67.40;;;30.67;;
20880;SDS011;10600;53.096;8.802;2022-12-05T01:22:33;61.28;;;29.98;;
20880;SDS011;10600;53.096;8.802;2022-12-05T01:23:33;63.88;;;29.95;;
20880;SDS011;10600;53.096;8.802;2022-12-05T01:24:34;66.82;;;30.90;;
20880;SDS011;10600;53.096;8.802;2022-12-05T01:25:38;64.75;;;30.33;;
20880;SDS011;10600;53.096;8.802;2022-12-05T01:26:40;62.67;;;29.85;;
20880;SDS011;10600;53.096;8.802;2022-12-05T01:27:41;65.55;;;30.70;;
20880;SDS011;10600;53.096;8.802;2022-12-05T01:28:42;68.72;;;30.60;;
20880;SDS011;10600;53.096;8.802;2022-12-05T01:29:43;61.63;;;30.85;;
20880;SDS011;10600;53.096;8.802;2022-12-05T01:30:46;63.80;;;31.20;;
20880;SDS011;10600;53.096;8.802;2022-12-05T01:31:47;67.65;;;30.73;;
20880;SDS011;10600;53.096;8.802;2022-12-05T01:32:48;64.30;;;31.02;;
20880;SDS011;10600;53.096;8.802;2022-12-05T01:33:49;62.78;;;30.88;;
20880;SDS011;10600;53.096;8.802;2022-12-05T01:34:50;62.75;;;29.77;;
20880;SDS011;10600;53.096;8.802;2022-12-05T01:35:51;67.47;;;30.98;;
20880;SDS011;10600;53.096;8.802;2022-12-05T01:36:51;66.07;;;32.15;;
20880;SDS011;10600;53.096;8.802;2022-12-05T01:37:52;67.72;;;32.45;;
20880;SDS011;10600;53.096;8.802;2022-12-05T01:38:53;66.60;;;31.00;;
20880;SDS011;10600;53.096;8.802;2022-12-05T01:39:54;62.83;;;30.83;;
20880;SDS011;10600;53.096;8.802;2022-12-05T01:40:58;67.78;;;32.78;;
20880;SDS011;10600;53.096;8.802;2022-12-05T01:42:03;66.82;;;30.90;;
20880;SDS011;10600;53.096;8.802;2022-12-05T01:43:05;61.95;;;30.42;;
20880;SDS011;10600;53.096;8.802;2022-12-05T01:45:16;64.40;;;31.23;;
20880;SDS011;10600;53.096;8.802;2022-12-05T01:46:21;66.07;;;30.25;;
20880;SDS011;10600;53.096;8.802;2022-12-05T01:47:22;63.33;;;29.98;;
20880;SDS011;10600;53.096;8.802;2022-12-05T01:48:28;65.97;;;33.00;;
20880;SDS011;10600;53.096;8.802;2022-12-05T01:49:33;64.47;;;31.60;;
20880;SDS011;10600;53.096;8.802;2022-12-05T01:50:39;66.18;;;32.00;;
20880;SDS011;10600;53.096;8.802;2022-12-05T01:51:45;64.95;;;31.55;;
20880;SDS011;10600;53.096;8.802;2022-12-05T01:52:47;66.13;;;31.15;;
20880;SDS011;10600;53.096;8.802;2022-12-05T01:53:48;66.20;;;31.55;;
20880;SDS011;10600;53.096;8.802;2022-12-05T01:54:50;70.50;;;31.65;;
20880;SDS011;10600;53.096;8.802;2022-12-05T01:55:54;66.65;;;30.90;;
20880;SDS011;10600;53.096;8.802;2022-12-05T01:56:57;68.10;;;31.35;;
20880;SDS011;10600;53.096;8.802;2022-12-05T01:58:01;69.07;;;32.40;;
20880;SDS011;10600;53.096;8.802;2022-12-05T01:59:04;67.57;;;31.67;;
20880;SDS011;10600;53.096;8.802;2022-12-05T02:00:09;73.20;;;33.55;;
20880;SDS011;10600;53.096;8.802;2022-12-05T02:01:12;65.35;;;32.10;;
20880;SDS011;10600;53.096;8.802;2022-12-05T02:02:14;69.32;;;32.53;;
20880;SDS011;10600;53.096;8.802;2022-12-05T02:03:16;69.53;;;31.83;;
20880;SDS011;10600;53.096;8.802;2022-12-05T02:04:19;71.47;;;32.22;;
20880;SDS011;10600;53.096;8.802;2022-12-05T02:05:21;68.68;;;32.80;;
20880;SDS011;10600;53.096;8.802;2022-12-05T02:06:30;75.18;;;34.20;;
20880;SDS011;10600;53.096;8.802;2022-12-05T02:07:31;69.28;;;33.83;;
20880;SDS011;10600;53.096;8.802;2022-12-05T02:08:34;71.40;;;33.95;;
20880;SDS011;10600;53.096;8.802;2022-12-05T02:09:35;72.40;;;32.92;;
20880;SDS011;10600;53.096;8.802;2022-12-05T02:10:37;69.90;;;33.08;;
20880;SDS011;10600;53.096;8.802;2022-12-05T02:11:52;75.35;;;33.20;;
20880;SDS011;10600;53.096;8.802;2022-12-05T02:12:57;75.43;;;33.55;;
20880;SDS011;10600;53.096;8.802;2022-12-05T02:15:53;68.43;;;33.20;;
20880;SDS011;10600;53.096;8.802;2022-12-05T02:17:05;71.75;;;33.25;;
20880;SDS011;10600;53.096;8.802;2022-12-05T02:20:07;71.20;;;32.45;;
20880;SDS011;10600;53.096;8.802;2022-12-05T02:26:21;75.88;;;33.40;;
20880;SDS011;10600;53.096;8.802;2022-12-05T02:27:42;79.95;;;34.50;;
20880;SDS011;10600;53.096;8.802;2022-12-05T02:30:24;75.35;;;33.92;;
20880;SDS011;10600;53.096;8.802;2022-12-05T02:31:33;75.43;;;34.25;;
20880;SDS011;10600;53.096;8.802;2022-12-05T02:32:50;74.78;;;33.20;;
20880;SDS011;10600;53.096;8.802;2022-12-05T02:36:26;78.45;;;33.20;;
20880;SDS011;10600;53.096;8.802;2022-12-05T02:37:43;75.18;;;33.55;;
20880;SDS011;10600;53.096;8.802;2022-12-05T02:42:20;77.05;;;32.80;;
20880;SDS011;10600;53.096;8.802;2022-12-05T02:44:51;71.03;;;33.10;;
20880;SDS011;10600;53.096;8.802;2022-12-05T02:45:59;81.38;;;32.95;;
20880;SDS011;10600;53.096;8.802;2022-12-05T02:47:05;76.45;;;32.15;;
20880;SDS011;10600;53.096;8.802;2022-12-05T02:48:08;78.68;;;33.78;;
20880;SDS011;10600;53.096;8.802;2022-12-05T02:49:13;69.07;;;32.85;;
20880;SDS011;10600;53.096;8.802;2022-12-05T02:50:19;77.57;;;32.47;;
20880;SDS011;10600;53.096;8.802;2022-12-05T02:51:23;74.63;;;33.17;;
20880;SDS011;10600;53.096;8.802;2022-12-05T02:52:28;76.80;;;31.77;;
20880;SDS011;10600;53.096;8.802;2022-12-05T02:53:30;74.05;;;31.63;;
20880;SDS011;10600;53.096;8.802;2022-12-05T02:54:37;83.65;;;34.60;;
20880;SDS011;10600;53.096;8.802;2022-12-05T02:55:41;80.20;;;34.75;;
20880;SDS011;10600;53.096;8.802;2022-12-05T02:56:44;74.30;;;32.63;;
20880;SDS011;10600;53.096;8.802;2022-12-05T02:57:48;73.95;;;31.90;;
20880;SDS011;10600;53.096;8.802;2022-12-05T02:58:53;81.25;;;34.38;;
20880;SDS011;10600;53.096;8.802;2022-12-05T02:59:54;78.53;;;32.45;;
20880;SDS011;10600;53.096;8.802;2022-12-05T03:00:55;76.75;;;32.80;;
20880;SDS011;10600;53.096;8.802;2022-12-05T03:01:58;81.93;;;32.35;;
20880;SDS011;10600;53.096;8.802;2022-12-05T03:02:59;72.72;;;32.55;;
20880;SDS011;10600;53.096;8.802;2022-12-05T03:04:00;79.80;;;35.20;;
20880;SDS011;10600;53.096;8.802;2022-12-05T03:05:15;74.45;;;31.63;;
20880;SDS011;10600;53.096;8.802;2022-12-05T03:07:32;76.70;;;33.80;;
20880;SDS011;10600;53.096;8.802;2022-12-05T03:08:46;74.57;;;32.63;;
20880;SDS011;10600;53.096;8.802;2022-12-05T03:09:55;74.80;;;31.52;;
20880;SDS011;10600;53.096;8.802;2022-12-05T03:11:00;75.90;;;32.42;;
20880;SDS011;10600;53.096;8.802;2022-12-05T03:13:38;78.30;;;31.75;;
20880;SDS011;10600;53.096;8.802;2022-12-05T03:16:04;77.00;;;32.33;;
20880;SDS011;10600;53.096;8.802;2022-12-05T03:17:11;69.45;;;31.02;;
20880;SDS011;10600;53.096;8.802;2022-12-05T03:19:23;78.82;;;33.35;;
20880;SDS011;10600;53.096;8.802;2022-12-05T03:20:44;74.05;;;32.42;;
20880;SDS011;10600;53.096;8.802;2022-12-05T03:22:00;78.70;;;33.60;;
20880;SDS011;10600;53.096;8.802;2022-12-05T03:24:50;76.82;;;32.25;;
20880;SDS011;10600;53.096;8.802;2022-12-05T03:26:10;82.53;;;32.60;;
20880;SDS011;10600;53.096;8.802;2022-12-05T03:28:19;77.75;;;32.63;;
20880;SDS011;10600;53.096;8.802;2022-12-05T03:29:25;75.78;;;33.92;;
20880;SDS011;10600;53.096;8.802;2022-12-05T03:30:38;79.10;;;33.42;;
20880;SDS011;10600;53.096;8.802;2022-12-05T03:31:43;79.40;;;33.35;;
20880;SDS011;10600;53.096;8.802;2022-12-05T03:33:51;83.47;;;33.95;;
20880;SDS011;10600;53.096;8.802;2022-12-05T03:37:34;80.68;;;32.03;;
20880;SDS011;10600;53.096;8.802;2022-12-05T03:42:42;73.70;;;31.38;;
20880;SDS011;10600;53.096;8.802;2022-12-05T03:44:13;77.40;;;31.48;;
20880;SDS011;10600;53.096;8.802;2022-12-05T03:45:26;83.15;;;33.22;;
20880;SDS011;10600;53.096;8.802;2022-12-05T03:46:36;77.65;;;32.35;;
20880;SDS011;10600;53.096;8.802;2022-12-05T03:47:47;78.63;;;34.40;;
20880;SDS011;10600;53.096;8.802;2022-12-05T03:50:25;76.97;;;32.00;;
20880;SDS011;10600;53.096;8.802;2022-12-05T03:51:30;83.97;;;33.40;;
20880;SDS011;10600;53.096;8.802;2022-12-05T03:52:43;77.28;;;33.58;;
20880;SDS011;10600;53.096;8.802;2022-12-05T03:53:59;86.13;;;32.58;;
20880;SDS011;10600;53.096;8.802;2022-12-05T03:55:06;87.32;;;34.72;;
20880;SDS011;10600;53.096;8.802;2022-12-05T03:56:10;86.15;;;33.83;;
20880;SDS011;10600;53.096;8.802;2022-12-05T03:57:21;79.55;;;33.25;;
20880;SDS011;10600;53.096;8.802;2022-12-05T03:58:30;76.90;;;33.70;;
20880;SDS011;10600;53.096;8.802;2022-12-05T03:59:38;79.95;;;32.58;;
20880;SDS011;10600;53.096;8.802;2022-12-05T04:00:42;89.28;;;33.30;;
20880;SDS011;10600;53.096;8.802;2022-12-05T04:01:48;85.85;;;32.97;;
20880;SDS011;10600;53.096;8.802;2022-12-05T04:03:00;79.38;;;33.00;;
20880;SDS011;10600;53.096;8.802;2022-12-05T04:04:11;86.10;;;32.42;;
20880;SDS011;10600;53.096;8.802;2022-12-05T04:05:29;81.35;;;33.63;;
20880;SDS011;10600;53.096;8.802;2022-12-05T04:06:41;74.05;;;31.88;;
20880;SDS011;10600;53.096;8.802;2022-12-05T04:07:47;84.53;;;33.80;;
20880;SDS011;10600;53.096;8.802;2022-12-05T04:08:54;78.95;;;32.05;;
20880;SDS011;10600;53.096;8.802;2022-12-05T04:10:10;90.60;;;33.38;;
20880;SDS011;10600;53.096;8.802;2022-12-05T04:11:15;78.75;;;31.92;;
20880;SDS011;10600;53.096;8.802;2022-12-05T04:12:24;81.00;;;32.10;;
20880;SDS011;10600;53.096;8.802;2022-12-05T04:14:39;72.25;;;30.92;;
20880;SDS011;10600;53.096;8.802;2022-12-05T04:15:52;75.32;;;31.40;;
20880;SDS011;10600;53.096;8.802;2022-12-05T04:17:33;79.47;;;31.73;;
20880;SDS011;10600;53.096;8.802;2022-12-05T04:18:41;76.93;;;30.95;;
20880;SDS011;10600;53.096;8.802;2022-12-05T04:21:14;81.45;;;32.40;;
20880;SDS011;10600;53.096;8.802;2022-12-05T04:22:36;81.10;;;31.15;;
20880;SDS011;10600;53.096;8.802;2022-12-05T04:23:38;80.22;;;32.40;;
20880;SDS011;10600;53.096;8.802;2022-12-05T04:24:38;75.82;;;31.25;;
20880;SDS011;10600;53.096;8.802;2022-12-05T04:26:20;73.32;;;31.67;;
20880;SDS011;10600;53.096;8.802;2022-12-05T04:29:42;82.93;;;33.05;;
20880;SDS011;10600;53.096;8.802;2022-12-05T04:30:17;88.00;;;32.22;;
20880;SDS011;10600;53.096;8.802;2022-12-05T04:31:24;86.53;;;32.42;;
20880;SDS011;10600;53.096;8.802;2022-12-05T04:32:39;72.95;;;30.67;;
20880;SDS011;10600;53.096;8.802;2022-12-05T04:33:53;82.85;;;31.77;;
20880;SDS011;10600;53.096;8.802;2022-12-05T04:34:58;79.85;;;30.92;;
20880;SDS011;10600;53.096;8.802;2022-12-05T04:36:18;79.18;;;32.45;;
20880;SDS011;10600;53.096;8.802;2022-12-05T04:37:29;75.93;;;31.50;;
20880;SDS011;10600;53.096;8.802;2022-12-05T04:38:41;79.72;;;33.00;;
20880;SDS011;10600;53.096;8.802;2022-12-05T04:39:54;79.10;;;31.70;;
20880;SDS011;10600;53.096;8.802;2022-12-05T04:40:59;86.25;;;31.73;;
20880;SDS011;10600;53.096;8.802;2022-12-05T04:42:07;84.80;;;33.63;;
20880;SDS011;10600;53.096;8.802;2022-12-05T04:43:11;81.57;;;32.88;;
20880;SDS011;10600;53.096;8.802;2022-12-05T04:44:15;74.95;;;31.67;;
20880;SDS011;10600;53.096;8.802;2022-12-05T04:45:19;76.63;;;32.08;;
20880;SDS011;10600;53.096;8.802;2022-12-05T04:46:21;80.95;;;32.17;;
20880;SDS011;10600;53.096;8.802;2022-12-05T04:47:24;77.97;;;29.92;;
20880;SDS011;10600;53.096;8.802;2022-12-05T04:48:28;76.68;;;31.33;;
20880;SDS011;10600;53.096;8.802;2022-12-05T04:49:32;69.95;;;29.08;;
20880;SDS011;10600;53.096;8.802;2022-12-05T04:50:35;80.72;;;31.60;;
20880;SDS011;10600;53.096;8.802;2022-12-05T04:51:37;74.60;;;32.25;;
20880;SDS011;10600;53.096;8.802;2022-12-05T04:52:39;85.85;;;34.15;;
20880;SDS011;10600;53.096;8.802;2022-12-05T04:53:42;85.95;;;31.90;;
20880;SDS011;10600;53.096;8.802;2022-12-05T04:54:47;79.13;;;33.53;;
20880;SDS011;10600;53.096;8.802;2022-12-05T04:55:52;76.82;;;31.27;;
20880;SDS011;10600;53.096;8.802;2022-12-05T04:56:58;76.10;;;31.45;;
20880;SDS011;10600;53.096;8.802;2022-12-05T04:58:13;81.40;;;32.78;;
20880;SDS011;10600;53.096;8.802;2022-12-05T04:59:17;79.35;;;31.88;;
20880;SDS011;10600;53.096;8.802;2022-12-05T05:00:18;76.85;;;32.88;;
20880;SDS011;10600;53.096;8.802;2022-12-05T05:02:53;79.22;;;32.40;;
20880;SDS011;10600;53.096;8.802;2022-12-05T05:04:13;75.25;;;31.75;;
20880;SDS011;10600;53.096;8.802;2022-12-05T05:05:25;74.38;;;31.92;;
20880;SDS011;10600;53.096;8.802;2022-12-05T05:06:27;75.28;;;31.50;;
20880;SDS011;10600;53.096;8.802;2022-12-05T05:07:29;73.97;;;30.00;;
20880;SDS011;10600;53.096;8.802;2022-12-05T05:08:30;78.22;;;31.65;;
20880;SDS011;10600;53.096;8.802;2022-12-05T05:09:30;77.82;;;33.47;;
20880;SDS011;10600;53.096;8.802;2022-12-05T05:10:36;75.72;;;32.65;;
20880;SDS011;10600;53.096;8.802;2022-12-05T05:11:40;80.45;;;32.70;;
20880;SDS011;10600;53.096;8.802;2022-12-05T05:12:41;78.78;;;31.73;;
20880;SDS011;10600;53.096;8.802;2022-12-05T05:13:42;77.32;;;31.48;;
20880;SDS011;10600;53.096;8.802;2022-12-05T05:14:42;74.80;;;32.53;;
20880;SDS011;10600;53.096;8.802;2022-12-05T05:15:43;77.63;;;33.17;;
20880;SDS011;10600;53.096;8.802;2022-12-05T05:16:44;78.47;;;32.30;;
20880;SDS011;10600;53.096;8.802;2022-12-05T05:17:46;85.40;;;33.75;;
20880;SDS011;10600;53.096;8.802;2022-12-05T05:18:47;77.05;;;31.80;;
20880;SDS011;10600;53.096;8.802;2022-12-05T05:19:48;80.63;;;31.30;;
20880;SDS011;10600;53.096;8.802;2022-12-05T05:20:49;90.93;;;34.05;;
20880;SDS011;10600;53.096;8.802;2022-12-05T05:21:50;74.30;;;32.55;;
20880;SDS011;10600;53.096;8.802;2022-12-05T05:22:54;72.80;;;32.08;;
20880;SDS011;10600;53.096;8.802;2022-12-05T05:23:56;75.30;;;31.35;;
20880;SDS011;10600;53.096;8.802;2022-12-05T05:24:57;78.20;;;31.85;;
20880;SDS011;10600;53.096;8.802;2022-12-05T05:25:58;81.30;;;33.55;;
20880;SDS011;10600;53.096;8.802;2022-12-05T05:26:58;78.72;;;31.33;;
20880;SDS011;10600;53.096;8.802;2022-12-05T05:27:59;78.63;;;31.77;;
20880;SDS011;10600;53.096;8.802;2022-12-05T05:29:00;73.97;;;33.15;;
20880;SDS011;10600;53.096;8.802;2022-12-05T05:30:01;84.53;;;33.17;;
20880;SDS011;10600;53.096;8.802;2022-12-05T05:31:02;83.32;;;33.53;;
20880;SDS011;10600;53.096;8.802;2022-12-05T05:32:03;80.60;;;33.42;;
20880;SDS011;10600;53.096;8.802;2022-12-05T05:33:03;79.35;;;33.30;;
20880;SDS011;10600;53.096;8.802;2022-12-05T05:34:04;85.63;;;32.55;;
20880;SDS011;10600;53.096;8.802;2022-12-05T05:35:06;84.93;;;33.72;;
20880;SDS011;10600;53.096;8.802;2022-12-05T05:36:09;82.93;;;34.22;;
20880;SDS011;10600;53.096;8.802;2022-12-05T05:37:11;80.38;;;32.30;;
20880;SDS011;10600;53.096;8.802;2022-12-05T05:38:12;77.82;;;31.40;;
20880;SDS011;10600;53.096;8.802;2022-12-05T05:39:13;79.00;;;32.80;;
20880;SDS011;10600;53.096;8.802;2022-12-05T05:40:14;84.50;;;33.67;;
20880;SDS011;10600;53.096;8.802;2022-12-05T05:42:28;74.45;;;30.80;;
20880;SDS011;10600;53.096;8.802;2022-12-05T05:43:29;83.10;;;33.00;;
20880;SDS011;10600;53.096;8.802;2022-12-05T05:44:30;78.75;;;31.83;;
20880;SDS011;10600;53.096;8.802;2022-12-05T05:45:30;76.72;;;33.53;;
20880;SDS011;10600;53.096;8.802;2022-12-05T05:46:31;82.57;;;33.17;;
20880;SDS011;10600;53.096;8.802;2022-12-05T05:47:34;84.00;;;35.13;;
20880;SDS011;10600;53.096;8.802;2022-12-05T05:48:34;83.93;;;34.40;;
20880;SDS011;10600;53.096;8.802;2022-12-05T05:49:35;87.13;;;34.20;;
20880;SDS011;10600;53.096;8.802;2022-12-05T05:50:36;74.00;;;32.00;;
20880;SDS011;10600;53.096;8.802;2022-12-05T05:51:37;79.75;;;34.25;;
20880;SDS011;10600;53.096;8.802;2022-12-05T05:52:37;80.32;;;33.13;;
20880;SDS011;10600;53.096;8.802;2022-12-05T05:53:38;81.15;;;31.90;;
20880;SDS011;10600;53.096;8.802;2022-12-05T05:54:39;86.90;;;34.28;;
20880;SDS011;10600;53.096;8.802;2022-12-05T05:55:40;79.55;;;32.85;;
20880;SDS011;10600;53.096;8.802;2022-12-05T05:56:41;79.25;;;32.28;;
20880;SDS011;10600;53.096;8.802;2022-12-05T05:57:42;78.85;;;32.40;;
20880;SDS011;10600;53.096;8.802;2022-12-05T05:58:42;85.57;;;32.55;;
20880;SDS011;10600;53.096;8.802;2022-12-05T05:59:43;82.55;;;33.78;;
20880;SDS011;10600;53.096;8.802;2022-12-05T06:00:44;80.30;;;33.03;;
20880;SDS011;10600;53.096;8.802;2022-12-05T06:01:45;82.72;;;33.03;;
20880;SDS011;10600;53.096;8.802;2022-12-05T06:02:46;83.93;;;32.97;;
20880;SDS011;10600;53.096;8.802;2022-12-05T06:03:47;81.68;;;33.58;;
20880;SDS011;10600;53.096;8.802;2022-12-05T06:04:49;82.97;;;31.27;;
20880;SDS011;10600;53.096;8.802;2022-12-05T06:05:56;74.07;;;30.73;;
20880;SDS011;10600;53.096;8.802;2022-12-05T06:06:58;74.95;;;32.05;;
20880;SDS011;10600;53.096;8.802;2022-12-05T06:07:59;77.45;;;33.20;;
20880;SDS011;10600;53.096;8.802;2022-12-05T06:08:59;75.90;;;32.20;;
20880;SDS011;10600;53.096;8.802;2022-12-05T06:10:00;70.75;;;31.45;;
20880;SDS011;10600;53.096;8.802;2022-12-05T06:11:04;76.90;;;33.35;;
20880;SDS011;10600;53.096;8.802;2022-12-05T06:12:12;79.22;;;32.80;;
20880;SDS011;10600;53.096;8.802;2022-12-05T06:13:12;76.20;;;31.38;;
20880;SDS011;10600;53.096;8.802;2022-12-05T06:14:13;76.07;;;30.92;;
20880;SDS011;10600;53.096;8.802;2022-12-05T06:15:14;71.95;;;31.00;;
20880;SDS011;10600;53.096;8.802;2022-12-05T06:16:15;81.75;;;32.25;;
20880;SDS011;10600;53.096;8.802;2022-12-05T06:17:17;80.78;;;33.45;;
20880;SDS011;10600;53.096;8.802;2022-12-05T06:18:17;73.47;;;32.72;;
20880;SDS011;10600;53.096;8.802;2022-12-05T06:19:18;74.03;;;32.72;;
20880;SDS011;10600;53.096;8.802;2022-12-05T06:20:19;79.97;;;32.47;;
20880;SDS011;10600;53.096;8.802;2022-12-05T06:21:20;76.63;;;32.92;;
20880;SDS011;10600;53.096;8.802;2022-12-05T06:22:21;75.53;;;32.05;;
20880;SDS011;10600;53.096;8.802;2022-12-05T06:23:22;71.72;;;31.42;;
20880;SDS011;10600;53.096;8.802;2022-12-05T06:24:24;74.85;;;31.50;;
20880;SDS011;10600;53.096;8.802;2022-12-05T06:25:24;79.65;;;31.95;;
20880;SDS011;10600;53.096;8.802;2022-12-05T06:26:25;79.53;;;32.65;;
20880;SDS011;10600;53.096;8.802;2022-12-05T06:27:28;72.80;;;30.23;;
20880;SDS011;10600;53.096;8.802;2022-12-05T06:28:29;75.03;;;32.20;;
20880;SDS011;10600;53.096;8.802;2022-12-05T06:29:31;81.93;;;32.15;;
20880;SDS011;10600;53.096;8.802;2022-12-05T06:30:32;72.70;;;31.70;;
20880;SDS011;10600;53.096;8.802;2022-12-05T06:31:33;72.82;;;30.33;;
20880;SDS011;10600;53.096;8.802;2022-12-05T06:32:33;80.90;;;32.65;;
20880;SDS011;10600;53.096;8.802;2022-12-05T06:33:34;68.60;;;31.02;;
20880;SDS011;10600;53.096;8.802;2022-12-05T06:34:35;72.40;;;30.67;;
20880;SDS011;10600;53.096;8.802;2022-12-05T06:35:36;70.97;;;31.17;;
20880;SDS011;10600;53.096;8.802;2022-12-05T06:36:37;72.22;;;31.80;;
20880;SDS011;10600;53.096;8.802;2022-12-05T06:37:37;76.28;;;29.90;;
20880;SDS011;10600;53.096;8.802;2022-12-05T06:38:38;85.38;;;32.58;;
20880;SDS011;10600;53.096;8.802;2022-12-05T06:39:39;72.72;;;32.40;;
20880;SDS011;10600;53.096;8.802;2022-12-05T06:40:40;75.90;;;31.73;;
20880;SDS011;10600;53.096;8.802;2022-12-05T06:41:42;77.00;;;31.15;;
20880;SDS011;10600;53.096;8.802;2022-12-05T06:42:43;77.78;;;32.92;;
20880;SDS011;10600;53.096;8.802;2022-12-05T06:43:44;81.45;;;34.25;;
20880;SDS011;10600;53.096;8.802;2022-12-05T06:44:45;80.43;;;32.17;;
20880;SDS011;10600;53.096;8.802;2022-12-05T06:45:45;74.72;;;32.25;;
20880;SDS011;10600;53.096;8.802;2022-12-05T06:46:46;81.78;;;32.33;;
20880;SDS011;10600;53.096;8.802;2022-12-05T06:47:49;76.80;;;32.60;;
20880;SDS011;10600;53.096;8.802;2022-12-05T06:48:54;80.00;;;31.85;;
20880;SDS011;10600;53.096;8.802;2022-12-05T06:49:56;80.95;;;32.70;;
20880;SDS011;10600;53.096;8.802;2022-12-05T06:50:56;80.05;;;32.50;;
20880;SDS011;10600;53.096;8.802;2022-12-05T06:51:57;84.60;;;34.13;;
20880;SDS011;10600;53.096;8.802;2022-12-05T06:52:58;79.65;;;32.75;;
20880;SDS011;10600;53.096;8.802;2022-12-05T06:53:59;77.97;;;31.70;;
20880;SDS011;10600;53.096;8.802;2022-12-05T06:54:59;83.45;;;32.72;;
20880;SDS011;10600;53.096;8.802;2022-12-05T06:56:01;85.32;;;31.65;;
20880;SDS011;10600;53.096;8.802;2022-12-05T06:57:03;79.25;;;33.05;;